Time;durP1;ratioP1;P1;durP2;ratioP2;P2;SDS_P1;SDS_P2;PMS_P1;PMS_P2;Temp;Humidity;BMP_temperature;BMP_pressure;BME280_temperature;BME280_humidity;BME280_pressure;Samples;Min_cycle;Max_cycle;Signal;HPM_P1;HPM_P2
2021/03/05 00:00:31;;;;;;;15.00;7.58;;;;;;;1.38;81.66;100307.28;1713057;82;25836;-70
2021/03/05 00:02:58;;;;;;;13.80;6.62;;;;;;;1.45;81.62;100313.66;1711799;81;25731;-72
2021/03/05 00:05:24;;;;;;;17.60;6.70;;;;;;;1.46;81.36;100310.97;1710180;82;25867;-71
2021/03/05 00:07:51;;;;;;;14.83;7.33;;;;;;;1.41;81.02;100313.50;1710000;82;25786;-71
2021/03/05 00:10:27;;;;;;;14.83;6.20;;;;;;;1.42;81.10;100309.98;1712411;82;26673;-71
2021/03/05 00:12:54;;;;;;;15.05;6.40;;;;;;;1.39;80.76;100311.49;1712103;82;25879;-70
2021/03/05 00:15:28;;;;;;;10.35;5.87;;;;;;;1.36;81.01;100311.24;1712392;81;25716;-70
2021/03/05 00:17:54;;;;;;;13.58;5.87;;;;;;;1.25;80.76;100296.54;1711664;81;25333;-71
2021/03/05 00:20:24;;;;;;;10.90;5.62;;;;;;;1.33;80.64;100317.89;1680247;82;25562;-71
2021/03/05 00:22:51;;;;;;;13.38;6.20;;;;;;;1.33;80.62;100321.28;1698601;82;25643;-71
2021/03/05 00:25:17;;;;;;;13.22;6.03;;;;;;;1.26;80.56;100315.41;1699272;82;25902;-71
2021/03/05 00:27:44;;;;;;;11.95;6.00;;;;;;;1.32;80.78;100314.50;1697420;82;26794;-70
2021/03/05 00:30:12;;;;;;;9.95;5.70;;;;;;;1.32;80.78;100314.50;1702739;81;26043;-70
2021/03/05 00:32:39;;;;;;;14.60;6.42;;;;;;;1.28;80.55;100318.67;1698819;82;25747;-71
2021/03/05 00:35:09;;;;;;;16.67;6.90;;;;;;;1.27;80.79;100318.33;1701628;81;25771;-70
2021/03/05 00:37:36;;;;;;;12.55;5.70;;;;;;;1.32;80.74;100318.84;1726229;81;25784;-71
2021/03/05 00:40:06;;;;;;;12.80;6.22;;;;;;;1.28;80.53;100318.23;1703923;82;25908;-72
2021/03/05 00:42:32;;;;;;;12.90;5.90;;;;;;;1.22;80.58;100316.53;1734585;81;26190;-71
2021/03/05 00:44:59;;;;;;;12.88;6.50;;;;;;;1.14;80.50;100326.06;1737526;81;26511;-73
2021/03/05 00:47:25;;;;;;;12.18;5.58;;;;;;;1.07;80.67;100321.81;1728841;81;25849;-72
2021/03/05 00:49:51;;;;;;;13.55;6.47;;;;;;;1.05;80.66;100318.52;1675418;83;25807;-72
2021/03/05 00:52:18;;;;;;;15.35;6.80;;;;;;;0.99;80.85;100299.64;1693306;82;25823;-70
2021/03/05 00:54:44;;;;;;;10.78;5.33;;;;;;;0.99;80.85;100299.64;1695102;81;25927;-70
2021/03/05 00:57:11;;;;;;;11.08;5.45;;;;;;;1.16;80.86;100308.77;1737014;80;25921;-71
2021/03/05 00:59:37;;;;;;;13.45;5.30;;;;;;;1.17;80.62;100316.02;1730841;80;25748;-70
2021/03/05 01:02:03;;;;;;;11.80;5.25;;;;;;;1.10;80.41;100313.88;1747480;80;25794;-72
2021/03/05 01:04:30;;;;;;;12.78;6.67;;;;;;;1.11;80.55;100312.94;1725520;81;25887;-72
2021/03/05 01:06:57;;;;;;;11.03;5.08;;;;;;;1.11;80.63;100310.37;1734329;80;25883;-72
2021/03/05 01:09:24;;;;;;;9.20;5.08;;;;;;;1.10;80.44;100304.05;1743080;80;25854;-72
2021/03/05 01:11:50;;;;;;;9.93;5.12;;;;;;;0.85;80.39;100294.63;1747869;81;25795;-72
2021/03/05 01:14:17;;;;;;;12.50;5.37;;;;;;;0.85;80.39;100294.63;1743147;80;26531;-72
2021/03/05 01:16:43;;;;;;;11.85;5.03;;;;;;;0.95;80.37;100311.06;1753894;80;25983;-72
2021/03/05 01:19:11;;;;;;;9.88;5.08;;;;;;;0.84;80.37;100292.48;1725104;80;25831;-72
2021/03/05 01:21:38;;;;;;;10.23;4.83;;;;;;;0.97;80.13;100313.07;1723198;81;25758;-72
2021/03/05 01:24:06;;;;;;;11.10;4.92;;;;;;;0.97;80.14;100318.22;1743616;80;26364;-72
2021/03/05 01:26:33;;;;;;;11.78;4.60;;;;;;;0.92;79.94;100312.55;1740980;80;25830;-71
2021/03/05 01:28:59;;;;;;;13.03;5.62;;;;;;;0.98;80.18;100312.60;1724093;81;25783;-72
2021/03/05 01:31:26;;;;;;;12.25;5.33;;;;;;;0.99;80.13;100309.94;1694592;82;25770;-72
2021/03/05 01:33:53;;;;;;;7.47;4.25;;;;;;;1.01;80.02;100314.52;1720519;81;25713;-73
2021/03/05 01:36:19;;;;;;;11.90;5.25;;;;;;;0.99;79.84;100307.36;1725651;81;25773;-72
2021/03/05 01:38:46;;;;;;;11.63;4.80;;;;;;;0.94;79.70;100308.61;1716325;81;25817;-72
2021/03/05 01:41:15;;;;;;;13.35;5.10;;;;;;;0.86;79.80;100306.08;1727902;81;25970;-72
2021/03/05 01:43:41;;;;;;;9.20;4.62;;;;;;;0.85;79.91;100307.48;1722517;80;25840;-71
2021/03/05 01:46:08;;;;;;;11.50;4.95;;;;;;;0.88;79.98;100308.56;1719048;81;25338;-72
2021/03/05 01:48:37;;;;;;;10.78;4.80;;;;;;;0.87;79.73;100313.33;1720236;81;25897;-72
2021/03/05 01:51:22;;;;;;;6.95;3.65;;;;;;;0.87;79.73;100313.33;1718693;81;26027;-72
2021/03/05 01:53:49;;;;;;;11.10;4.72;;;;;;;0.85;79.67;100317.30;1703314;81;25766;-71
2021/03/05 01:56:41;;;;;;;11.83;4.90;;;;;;;0.77;79.67;100319.57;1700020;81;25864;-72
2021/03/05 01:59:11;;;;;;;9.30;4.70;;;;;;;0.74;79.80;100313.83;1730230;80;25731;-71
2021/03/05 02:01:38;;;;;;;;;;;;;;;0.88;80.04;100317.56;1741151;80;26557;-72
2021/03/05 02:04:10;;;;;;;10.10;4.58;;;;;;;0.89;79.82;100318.73;1734490;80;26579;-72
2021/03/05 02:06:38;;;;;;;9.55;3.98;;;;;;;0.92;79.85;100319.45;1741038;80;25739;-72
2021/03/05 02:09:07;;;;;;;9.18;4.62;;;;;;;0.92;79.62;100324.60;1742733;81;25731;-73
2021/03/05 02:11:34;;;;;;;12.20;4.75;;;;;;;0.84;79.36;100324.64;1745443;80;25727;-72
2021/03/05 02:14:07;;;;;;;8.73;3.90;;;;;;;0.80;79.33;100328.84;1733034;80;25695;-71
2021/03/05 02:16:54;;;;;;;9.78;4.05;;;;;;;0.77;79.46;100324.72;1721142;81;25808;-71
2021/03/05 02:20:01;;;;;;;9.58;4.70;;;;;;;0.72;79.30;100334.95;1716202;81;25703;-72
2021/03/05 02:23:06;;;;;;;11.48;4.78;;;;;;;0.65;79.48;100331.52;1703907;83;25836;-71
2021/03/05 02:26:11;;;;;;;9.78;4.15;;;;;;;0.63;79.51;100331.25;1710314;82;25772;-72
2021/03/05 02:29:15;;;;;;;11.80;5.80;;;;;;;0.63;79.51;100331.25;1686135;83;25660;-72
2021/03/05 02:31:54;;;;;;;9.58;4.40;;;;;;;0.61;79.42;100328.77;1712716;82;26510;-72
2021/03/05 02:34:28;;;;;;;6.77;4.03;;;;;;;0.53;79.54;100333.59;1707984;81;25765;-72
2021/03/05 02:37:11;;;;;;;7.62;4.12;;;;;;;0.50;79.56;100332.98;1718922;81;26092;-72
2021/03/05 02:40:09;;;;;;;10.15;4.65;;;;;;;0.41;79.58;100339.09;1704478;81;26368;-72
2021/03/05 02:42:58;;;;;;;10.70;4.40;;;;;;;0.37;79.69;100339.38;1716745;81;25729;-72
2021/03/05 02:45:29;;;;;;;10.68;4.90;;;;;;;0.35;79.77;100338.66;1714875;81;25841;-72
2021/03/05 02:48:16;;;;;;;12.10;4.20;;;;;;;0.36;79.95;100348.03;1715917;81;26466;-72
2021/03/05 02:50:47;;;;;;;11.50;4.50;;;;;;;0.38;79.95;100350.02;1691571;82;25802;-73
2021/03/05 02:53:16;;;;;;;11.30;4.47;;;;;;;0.39;79.87;100349.93;1704662;80;26601;-72
2021/03/05 02:55:46;;;;;;;10.82;4.15;;;;;;;0.36;79.81;100349.31;1709949;81;25923;-72
2021/03/05 02:58:15;;;;;;;10.70;5.70;;;;;;;0.34;79.94;100344.73;1692860;82;25989;-73
2021/03/05 03:00:44;;;;;;;7.33;3.70;;;;;;;0.31;79.91;100347.50;1692660;81;26122;-72
2021/03/05 03:03:13;;;;;;;8.70;4.58;;;;;;;0.31;80.04;100344.93;1698180;82;25983;-72
2021/03/05 03:05:41;;;;;;;7.78;3.55;;;;;;;0.28;79.91;100349.81;1710776;80;25879;-72
2021/03/05 03:08:10;;;;;;;14.70;4.08;;;;;;;0.25;79.91;100346.16;1689466;83;26597;-72
2021/03/05 03:10:37;;;;;;;10.18;3.83;;;;;;;0.23;79.94;100354.88;1687489;83;25852;-73
2021/03/05 03:13:05;;;;;;;10.50;4.30;;;;;;;0.24;80.03;100356.52;1722870;80;25886;-72
2021/03/05 03:15:33;;;;;;;8.28;3.80;;;;;;;0.22;79.94;100357.92;1683025;83;26393;-72
2021/03/05 03:18:04;;;;;;;7.22;3.40;;;;;;;0.21;79.96;100358.83;1695079;82;25929;-72
2021/03/05 03:20:30;;;;;;;8.38;3.25;;;;;;;0.17;79.92;100358.20;1720522;81;26513;-73
2021/03/05 03:22:57;;;;;;;11.30;4.47;;;;;;;0.16;79.95;100359.14;1721286;81;25764;-72
2021/03/05 03:25:25;;;;;;;9.28;4.37;;;;;;;0.13;79.89;100362.34;1722003;81;25963;-72
2021/03/05 03:27:54;;;;;;;11.03;5.30;;;;;;;0.15;80.04;100363.08;1726361;81;26660;-72
2021/03/05 03:30:22;;;;;;;7.65;4.17;;;;;;;0.15;80.07;100358.76;1725002;81;26663;-72
2021/03/05 03:32:49;;;;;;;9.63;4.60;;;;;;;0.12;79.94;100363.28;1697951;81;25803;-72
2021/03/05 03:35:16;;;;;;;11.78;4.42;;;;;;;0.12;80.08;100364.09;1697871;83;25878;-72
2021/03/05 03:37:43;;;;;;;12.28;4.72;;;;;;;0.18;80.20;100368.02;1696148;82;25909;-73
2021/03/05 03:40:15;;;;;;;9.98;4.58;;;;;;;0.19;80.12;100376.93;1722092;81;25713;-72
2021/03/05 03:42:41;;;;;;;9.53;4.30;;;;;;;0.19;80.11;100375.65;1722666;80;25906;-72
2021/03/05 03:45:10;;;;;;;9.85;5.20;;;;;;;0.19;80.16;100375.65;1706648;81;25769;-72
2021/03/05 03:47:37;;;;;;;10.23;4.65;;;;;;;0.21;80.21;100378.92;1707592;82;25883;-73
2021/03/05 03:50:13;;;;;;;11.57;4.42;;;;;;;0.24;80.18;100377.90;1691023;82;25843;-72
2021/03/05 03:52:58;;;;;;;13.90;4.45;;;;;;;0.21;80.10;100378.92;1725516;81;25306;-72
2021/03/05 03:55:25;;;;;;;10.58;4.53;;;;;;;0.20;80.17;100379.85;1733485;81;25880;-72
2021/03/05 03:57:53;;;;;;;8.13;3.90;;;;;;;0.19;80.14;100384.64;1732425;81;25743;-72
2021/03/05 04:00:21;;;;;;;10.13;4.15;;;;;;;0.19;80.26;100383.79;1699404;81;25899;-72
2021/03/05 04:02:54;;;;;;;7.08;3.92;;;;;;;0.23;80.47;100392.97;1693598;82;25823;-72
2021/03/05 04:05:26;;;;;;;10.20;3.77;;;;;;;0.21;80.23;100394.80;1723317;81;25827;-72
2021/03/05 04:07:56;;;;;;;11.53;4.80;;;;;;;0.19;80.24;100400.50;1707956;82;25739;-72
2021/03/05 04:10:23;;;;;;;9.88;4.22;;;;;;;0.14;80.28;100400.81;1712111;81;26275;-72
2021/03/05 04:12:51;;;;;;;7.92;4.50;;;;;;;0.15;80.43;100399.87;1707787;80;25882;-73
2021/03/05 04:15:18;;;;;;;8.75;3.95;;;;;;;0.14;80.41;100398.70;1700888;82;26559;-72
2021/03/05 04:17:46;;;;;;;13.95;4.10;;;;;;;0.09;80.38;100406.70;1711301;81;25755;-72
2021/03/05 04:20:16;;;;;;;8.80;3.85;;;;;;;0.09;80.47;100406.70;1683492;82;25398;-72
2021/03/05 04:22:45;;;;;;;9.60;4.40;;;;;;;0.17;80.65;100406.22;1698097;82;25825;-71
2021/03/05 04:25:15;;;;;;;7.00;3.83;;;;;;;0.20;80.49;100413.73;1690869;82;26450;-71
2021/03/05 04:27:42;;;;;;;11.85;6.45;;;;;;;0.19;80.45;100415.91;1732962;80;25768;-72
2021/03/05 04:30:10;;;;;;;12.33;4.72;;;;;;;0.18;80.32;100416.38;1706164;81;26398;-72
2021/03/05 04:32:39;;;;;;;8.93;4.00;;;;;;;0.14;80.35;100415.41;1713203;81;26280;-72
2021/03/05 04:35:09;;;;;;;11.90;4.70;;;;;;;0.09;80.56;100424.69;1725623;81;25751;-72
2021/03/05 04:37:35;;;;;;;12.47;6.40;;;;;;;0.03;80.62;100416.52;1727830;81;25784;-72
2021/03/05 04:40:04;;;;;;;9.35;3.90;;;;;;;-0.04;80.86;100419.94;1728115;81;25787;-72
2021/03/05 04:42:31;;;;;;;11.53;5.22;;;;;;;-0.10;80.99;100426.75;1706589;82;25843;-72
2021/03/05 04:44:57;;;;;;;8.63;4.85;;;;;;;-0.14;80.87;100427.37;1736538;80;25732;-72
2021/03/05 04:47:23;;;;;;;14.65;4.60;;;;;;;-0.13;80.95;100422.63;1733325;80;25767;-71
2021/03/05 04:49:50;;;;;;;7.33;4.20;;;;;;;-0.13;80.90;100427.77;1733129;81;25820;-72
2021/03/05 04:52:16;;;;;;;7.80;4.40;;;;;;;-0.16;81.05;100433.56;1732797;81;25846;-72
2021/03/05 04:54:42;;;;;;;13.88;6.50;;;;;;;-0.20;81.13;100438.04;1735987;81;25814;-72
2021/03/05 04:57:09;;;;;;;9.43;5.47;;;;;;;-0.26;81.05;100441.81;1715140;81;25805;-72
2021/03/05 04:59:35;;;;;;;15.05;5.65;;;;;;;-0.29;81.06;100442.00;1715115;81;25851;-72
2021/03/05 05:02:02;;;;;;;10.20;5.30;;;;;;;-0.31;81.03;100442.55;1726553;81;25750;-72
2021/03/05 05:04:28;;;;;;;9.10;4.80;;;;;;;-0.32;81.09;100439.63;1732403;81;25664;-72
2021/03/05 05:06:54;;;;;;;13.45;5.17;;;;;;;-0.34;81.02;100444.48;1733298;81;25838;-72
2021/03/05 05:09:21;;;;;;;9.45;4.90;;;;;;;-0.34;81.16;100441.91;1727352;81;25930;-72
2021/03/05 05:11:48;;;;;;;14.78;5.62;;;;;;;-0.35;81.12;100445.41;1725644;81;26388;-72
2021/03/05 05:14:14;;;;;;;10.63;5.33;;;;;;;-0.40;81.39;100448.72;1725419;81;25768;-72
2021/03/05 05:16:40;;;;;;;10.75;5.12;;;;;;;-0.46;81.24;100449.91;1709685;82;25757;-72
2021/03/05 05:19:07;;;;;;;9.23;5.45;;;;;;;-0.48;81.49;100460.72;1706432;82;26191;-73
2021/03/05 05:21:34;;;;;;;11.70;6.20;;;;;;;-0.54;81.40;100461.09;1713552;82;25763;-72
2021/03/05 05:24:00;;;;;;;10.63;5.00;;;;;;;-0.54;81.48;100466.23;1711314;81;25686;-72
2021/03/05 05:26:26;;;;;;;12.23;6.17;;;;;;;-0.55;81.42;100469.23;1713045;82;26289;-72
2021/03/05 05:28:53;;;;;;;9.53;5.03;;;;;;;-0.55;81.45;100473.08;1711475;82;25739;-69
2021/03/05 05:31:19;;;;;;;12.13;5.80;;;;;;;-0.54;81.36;100466.23;1712078;82;25837;-71
2021/03/05 05:33:45;;;;;;;10.75;5.12;;;;;;;-0.54;81.38;100471.36;1683919;83;25937;-72
2021/03/05 05:36:12;;;;;;;11.68;5.50;;;;;;;-0.54;81.41;100477.78;1724034;81;26464;-72
2021/03/05 05:38:38;;;;;;;8.63;5.37;;;;;;;-0.54;81.55;100477.31;1731436;80;25780;-72
2021/03/05 05:41:04;;;;;;;12.23;4.78;;;;;;;-0.55;81.47;100484.63;1729489;81;25804;-72
2021/03/05 05:43:32;;;;;;;13.85;4.92;;;;;;;-0.54;81.68;100486.30;1731374;81;25734;-71
2021/03/05 05:46:07;;;;;;;11.93;5.33;;;;;;;-0.58;81.61;100489.95;1730376;81;25841;-72
2021/03/05 05:48:39;;;;;;;9.68;5.15;;;;;;;-0.59;81.46;100499.04;1726862;81;26389;-72
2021/03/05 05:51:13;;;;;;;11.55;6.00;;;;;;;-0.58;81.64;100500.22;1705981;81;25667;-72
2021/03/05 05:53:45;;;;;;;10.00;5.55;;;;;;;-0.58;81.67;100502.78;1704997;83;25853;-72
2021/03/05 05:56:17;;;;;;;10.03;5.28;;;;;;;-0.58;81.64;100506.63;1700105;82;26179;-72
2021/03/05 05:58:44;;;;;;;10.40;5.08;;;;;;;-0.55;81.61;100509.02;1728235;81;25725;-72
2021/03/05 06:01:11;;;;;;;10.82;5.25;;;;;;;-0.57;81.67;100512.62;1730371;81;25816;-71
2021/03/05 06:03:40;;;;;;;10.75;4.78;;;;;;;-0.60;81.64;100515.34;1737178;80;25704;-72
2021/03/05 06:06:07;;;;;;;13.53;4.87;;;;;;;-0.64;81.59;100518.55;1731028;81;26469;-72
2021/03/05 06:08:36;;;;;;;14.40;6.90;;;;;;;-0.66;81.81;100531.92;1704000;82;25796;-71
2021/03/05 06:11:02;;;;;;;9.85;5.67;;;;;;;-0.71;81.69;100536.06;1706188;82;25807;-72
2021/03/05 06:13:28;;;;;;;13.48;5.20;;;;;;;-0.72;82.06;100541.27;1710631;81;25786;-72
2021/03/05 06:16:18;;;;;;;12.58;5.40;;;;;;;-0.77;82.02;100538.13;1699605;82;25760;-72
2021/03/05 06:18:46;;;;;;;11.73;6.17;;;;;;;-0.80;82.11;100542.98;1697990;82;31000;-71
2021/03/05 06:21:13;;;;;;;7.17;5.00;;;;;;;-0.76;82.02;100550.06;1701971;81;26496;-72
2021/03/05 06:24:00;;;;;;;11.03;5.33;;;;;;;-0.77;82.09;100550.50;1729810;81;25761;-75
2021/03/05 06:26:27;;;;;;;11.53;5.28;;;;;;;-0.75;82.02;100555.09;1733278;81;26304;-73
2021/03/05 06:29:04;;;;;;;10.03;5.95;;;;;;;-0.70;82.06;100555.66;1732771;81;25865;-71
2021/03/05 06:31:32;;;;;;;12.70;5.75;;;;;;;-0.75;81.96;100562.80;1735217;81;26415;-71
2021/03/05 06:34:01;;;;;;;13.45;6.30;;;;;;;-0.73;82.00;100569.95;1736700;81;26018;-71
2021/03/05 06:36:28;;;;;;;10.35;5.65;;;;;;;-0.64;82.16;100580.61;1736130;81;25758;-71
2021/03/05 06:38:55;;;;;;;11.22;6.10;;;;;;;-0.58;82.06;100581.53;1733384;81;26618;-71
2021/03/05 06:41:31;;;;;;;10.70;5.67;;;;;;;-0.53;81.98;100594.47;1733130;81;25451;-71
2021/03/05 06:44:01;;;;;;;15.00;5.95;;;;;;;-0.52;81.78;100592.73;1736576;81;25716;-70
2021/03/05 06:46:43;;;;;;;11.60;5.72;;;;;;;-0.50;81.78;100592.19;1734636;81;26385;-70
2021/03/05 06:49:16;;;;;;;12.93;7.62;;;;;;;-0.46;81.67;100601.38;1735307;81;25815;-72
2021/03/05 06:51:55;;;;;;;13.00;5.53;;;;;;;-0.48;81.54;100600.17;1733292;80;25830;-72
2021/03/05 06:54:28;;;;;;;11.70;6.28;;;;;;;-0.49;81.59;100598.99;1706583;81;25812;-71
2021/03/05 06:56:55;;;;;;;13.95;6.70;;;;;;;-0.47;81.62;100599.25;1704819;81;25889;-72
2021/03/05 06:59:23;;;;;;;13.45;6.97;;;;;;;-0.45;81.47;100609.44;1735014;81;25752;-70
2021/03/05 07:01:56;;;;;;;10.38;6.35;;;;;;;-0.42;81.48;100614.86;1737423;81;25953;-70
2021/03/05 07:04:27;;;;;;;10.85;5.90;;;;;;;-0.42;81.24;100614.86;1736387;81;25701;-72
2021/03/05 07:07:06;;;;;;;9.75;6.00;;;;;;;-0.49;81.30;100610.09;1734721;81;25762;-72
2021/03/05 07:09:36;;;;;;;13.32;7.08;;;;;;;-0.44;81.46;100616.22;1732885;81;25664;-72
2021/03/05 07:12:10;;;;;;;;;;;;;;;-0.34;81.47;100614.78;1706614;81;25771;-72
2021/03/05 07:14:38;;;;;;;11.40;6.25;;;;;;;-0.23;81.46;100618.83;1733847;81;25814;-72
2021/03/05 07:17:06;;;;;;;11.63;7.12;;;;;;;-0.23;80.76;100621.41;1733140;81;25719;-72
2021/03/05 07:19:35;;;;;;;15.00;7.67;;;;;;;-0.26;80.53;100623.33;1737066;81;25831;-72
2021/03/05 07:22:03;;;;;;;13.53;6.78;;;;;;;-0.34;80.51;100621.20;1733803;80;26390;-72
2021/03/05 07:24:31;;;;;;;11.80;6.60;;;;;;;-0.28;80.75;100631.11;1733766;81;25836;-69
2021/03/05 07:27:01;;;;;;;10.40;6.40;;;;;;;-0.20;80.87;100629.85;1730744;80;26672;-69
2021/03/05 07:29:44;;;;;;;14.63;7.72;;;;;;;-0.14;80.80;100636.73;1732007;79;25910;-69
2021/03/05 07:32:40;;;;;;;13.25;6.58;;;;;;;-0.14;80.58;100632.88;1733674;81;25685;-70
2021/03/05 07:35:23;;;;;;;11.40;6.72;;;;;;;-0.12;80.64;100637.47;1735286;81;25401;-69
2021/03/05 07:37:56;;;;;;;11.35;7.08;;;;;;;0.03;80.53;100641.34;1734108;81;25970;-71
2021/03/05 07:40:23;;;;;;;12.33;7.53;;;;;;;0.02;79.76;100652.08;1738433;80;25781;-73
2021/03/05 07:42:50;;;;;;;11.53;6.50;;;;;;;-0.06;79.83;100651.70;1739171;80;26364;-73
2021/03/05 07:45:17;;;;;;;11.33;6.10;;;;;;;-0.08;80.02;100654.84;1730356;81;26611;-72
2021/03/05 07:47:47;;;;;;;14.18;6.65;;;;;;;0.01;80.06;100658.61;1740673;80;25895;-73
2021/03/05 07:50:16;;;;;;;12.70;5.67;;;;;;;0.01;79.76;100661.18;1732958;81;25785;-72
2021/03/05 07:52:43;;;;;;;14.33;6.80;;;;;;;-0.06;79.84;100657.66;1733707;81;25734;-68
2021/03/05 07:55:10;;;;;;;12.95;5.80;;;;;;;-0.05;80.01;100656.77;1702591;82;26430;-69
2021/03/05 07:57:44;;;;;;;12.55;7.58;;;;;;;0.01;80.01;100658.61;1735316;81;26432;-72
2021/03/05 08:00:16;;;;;;;12.58;6.92;;;;;;;0.08;80.19;100663.73;1731644;80;25803;-68
2021/03/05 08:02:57;;;;;;;12.40;7.40;;;;;;;0.10;79.83;100660.63;1714866;81;26268;-69
2021/03/05 08:05:42;;;;;;;13.65;7.10;;;;;;;0.15;80.07;100658.62;1719586;81;25662;-69
2021/03/05 08:08:19;;;;;;;11.95;6.37;;;;;;;0.31;80.03;100661.92;1712702;81;25670;-68
2021/03/05 08:10:50;;;;;;;8.98;5.03;;;;;;;0.38;79.78;100660.66;1717093;81;25436;-69
2021/03/05 08:13:46;;;;;;;12.58;6.17;;;;;;;0.40;79.18;100667.80;1721250;81;25876;-69
2021/03/05 08:16:33;;;;;;;10.25;5.87;;;;;;;0.38;79.00;100667.52;1719128;81;25870;-69
2021/03/05 08:19:14;;;;;;;14.85;6.25;;;;;;;0.32;78.98;100667.89;1720887;81;25629;-69
2021/03/05 08:21:58;;;;;;;10.60;6.17;;;;;;;0.26;78.58;100664.41;1740555;80;25859;-69
2021/03/05 08:24:28;;;;;;;11.43;5.62;;;;;;;0.28;79.02;100671.58;1745532;80;26447;-69
2021/03/05 08:27:04;;;;;;;13.43;6.53;;;;;;;0.34;79.01;100674.59;1710384;81;25686;-70
2021/03/05 08:30:08;;;;;;;13.55;5.90;;;;;;;0.35;78.46;100674.95;1743241;80;25871;-72
2021/03/05 08:32:40;;;;;;;11.20;5.90;;;;;;;0.29;78.17;100676.61;1740220;80;26575;-72
2021/03/05 08:35:37;;;;;;;10.18;4.80;;;;;;;0.28;78.37;100676.25;1741289;80;25672;-72
2021/03/05 08:38:08;;;;;;;13.78;5.95;;;;;;;0.30;77.89;100685.14;1739668;80;25950;-69
2021/03/05 08:40:41;;;;;;;9.73;5.22;;;;;;;0.30;78.15;100684.70;1733253;80;26320;-70
2021/03/05 08:43:26;;;;;;;11.63;5.30;;;;;;;0.37;78.15;100685.16;1745000;80;25632;-70
2021/03/05 08:46:05;;;;;;;11.38;5.17;;;;;;;0.46;78.16;100688.92;1746834;80;26443;-70
2021/03/05 08:48:42;;;;;;;8.03;4.77;;;;;;;0.52;77.03;100685.97;1740879;80;26082;-70
2021/03/05 08:51:14;;;;;;;10.20;5.55;;;;;;;0.52;77.10;100693.25;1740101;80;25845;-70
2021/03/05 08:53:48;;;;;;;12.47;5.62;;;;;;;0.60;77.74;100687.62;1737747;80;26550;-74
2021/03/05 08:56:32;;;;;;;10.15;5.45;;;;;;;0.76;77.61;100693.48;1727134;81;25934;-74
2021/03/05 08:59:04;;;;;;;11.68;7.10;;;;;;;0.86;77.48;100697.62;1730931;81;25703;-73
2021/03/05 09:01:39;;;;;;;10.00;5.62;;;;;;;0.91;76.75;100707.17;1727617;80;26549;-73
2021/03/05 09:04:20;;;;;;;15.23;6.33;;;;;;;0.92;76.21;100702.84;1738271;78;25865;-72
2021/03/05 09:06:56;;;;;;;14.58;6.97;;;;;;;0.93;76.49;100704.05;1727466;81;25884;-72
2021/03/05 09:09:30;;;;;;;13.53;5.67;;;;;;;1.01;77.12;100708.27;1738085;80;25766;-73
2021/03/05 09:12:14;;;;;;;14.40;5.20;;;;;;;1.17;77.14;100700.39;1710889;81;25996;-74
2021/03/05 09:14:43;;;;;;;9.08;4.58;;;;;;;1.33;76.06;100707.98;1747077;80;25938;-73
2021/03/05 09:17:11;;;;;;;7.03;3.85;;;;;;;1.48;76.33;100699.30;1747409;80;25962;-73
2021/03/05 09:19:43;;;;;;;8.30;4.10;;;;;;;1.52;74.73;100700.73;1740983;80;26664;-69
2021/03/05 09:22:26;;;;;;;8.68;5.22;;;;;;;1.47;75.17;100706.67;1745885;80;25746;-70
2021/03/05 09:25:09;;;;;;;11.85;5.05;;;;;;;1.57;75.63;100700.91;1747019;80;25787;-68
2021/03/05 09:27:41;;;;;;;9.30;4.42;;;;;;;1.59;73.73;100699.89;1735413;80;25845;-69
2021/03/05 09:30:21;;;;;;;8.08;4.00;;;;;;;1.61;74.19;100712.66;1707400;80;25660;-69
2021/03/05 09:32:52;;;;;;;9.03;4.35;;;;;;;1.76;74.58;100712.50;1747011;80;36439;-70
2021/03/05 09:35:29;;;;;;;9.78;4.40;;;;;;;1.76;74.58;100712.50;1745602;80;25901;-71
2021/03/05 09:37:57;;;;;;;8.93;3.72;;;;;;;1.87;71.69;100710.98;1748458;80;26657;-70
2021/03/05 09:40:29;;;;;;;7.83;4.03;;;;;;;1.84;71.10;100706.03;1731023;80;25694;-74
2021/03/05 09:42:59;;;;;;;6.40;3.67;;;;;;;1.87;72.63;100709.22;1737840;80;25846;-72
2021/03/05 09:45:41;;;;;;;5.62;3.45;;;;;;;1.95;70.94;100713.88;1702852;82;25878;-74
2021/03/05 09:48:12;;;;;;;7.47;3.65;;;;;;;2.01;70.70;100718.63;1701208;82;25856;-75
2021/03/05 09:50:40;;;;;;;8.55;3.40;;;;;;;2.13;71.79;100720.88;1689699;82;25815;-74
2021/03/05 09:53:24;;;;;;;7.33;3.47;;;;;;;2.16;69.67;100703.91;1685922;83;26673;-73
2021/03/05 09:55:54;;;;;;;7.47;3.67;;;;;;;2.16;69.67;100676.84;1664270;84;25876;-73
2021/03/05 09:58:21;;;;;;;6.72;3.55;;;;;;;2.41;69.83;100718.09;1664841;84;26611;-74
2021/03/05 10:00:48;;;;;;;5.08;3.05;;;;;;;2.55;68.30;100723.61;1661163;84;25322;-73
2021/03/05 10:03:16;;;;;;;5.60;3.20;;;;;;;2.60;69.58;100722.02;1669454;83;25790;-73
2021/03/05 10:05:44;;;;;;;9.30;2.50;;;;;;;2.68;68.62;100721.02;1711524;81;25872;-73
2021/03/05 10:08:15;;;;;;;5.25;2.72;;;;;;;2.75;64.81;100729.97;1700097;81;25797;-74
2021/03/05 10:11:09;;;;;;;6.12;3.10;;;;;;;2.75;63.84;100729.97;1682913;81;25943;-74
2021/03/05 10:13:52;;;;;;;8.23;2.87;;;;;;;2.78;66.24;100728.50;1708230;82;25908;-70
2021/03/05 10:16:23;;;;;;;8.75;3.10;;;;;;;2.85;64.37;100723.25;1716550;81;25940;-73
2021/03/05 10:18:56;;;;;;;4.03;2.77;;;;;;;2.85;64.37;100723.25;1720904;81;26420;-74
2021/03/05 10:21:24;;;;;;;7.42;3.10;;;;;;;2.95;64.67;100740.23;1718051;81;26090;-73
2021/03/05 10:23:51;;;;;;;5.00;2.80;;;;;;;3.04;63.58;100747.33;1711700;81;25770;-73
2021/03/05 10:26:22;;;;;;;3.52;2.15;;;;;;;3.04;63.58;100747.33;1678899;81;25815;-73
2021/03/05 10:29:05;;;;;;;4.33;2.35;;;;;;;3.08;59.69;100755.23;1652107;84;25962;-74
2021/03/05 10:31:53;;;;;;;3.65;2.22;;;;;;;3.00;58.22;100752.36;1662257;84;26332;-72
2021/03/05 10:34:25;;;;;;;4.37;2.52;;;;;;;3.09;57.55;100757.34;1661604;84;26026;-68
2021/03/05 10:36:53;;;;;;;3.87;2.02;;;;;;;3.09;59.67;100734.92;1662734;84;26736;-74
2021/03/05 10:39:21;;;;;;;2.20;1.55;;;;;;;3.32;55.72;100764.29;1651715;84;25921;-73
2021/03/05 10:41:56;;;;;;;4.33;1.77;;;;;;;3.18;54.87;100767.50;1694752;82;25738;-73
2021/03/05 10:44:22;;;;;;;4.05;2.15;;;;;;;3.05;54.67;100764.93;1720690;80;25766;-74
2021/03/05 10:46:49;;;;;;;3.40;1.98;;;;;;;3.04;51.58;100764.59;1700319;82;26486;-73
2021/03/05 10:49:16;;;;;;;5.12;2.40;;;;;;;3.11;51.48;100770.98;1719563;80;25850;-70
2021/03/05 10:51:42;;;;;;;7.22;3.08;;;;;;;3.14;52.14;100772.06;1740899;80;25758;-70
2021/03/05 10:54:09;;;;;;;5.42;2.58;;;;;;;3.21;55.05;100775.03;1708070;81;25773;-69
2021/03/05 10:56:35;;;;;;;6.90;2.67;;;;;;;3.36;55.90;100780.42;1733612;80;25786;-69
2021/03/05 10:59:02;;;;;;;3.50;1.95;;;;;;;3.58;53.92;100776.32;1718539;81;26460;-69
2021/03/05 11:01:28;;;;;;;4.20;2.12;;;;;;;3.61;51.95;100782.09;1732980;81;25628;-70
2021/03/05 11:03:54;;;;;;;3.17;1.87;;;;;;;3.46;52.39;100781.40;1729190;81;25372;-69
2021/03/05 11:06:21;;;;;;;3.15;2.10;;;;;;;3.43;48.84;100790.66;1727394;81;25878;-69
2021/03/05 11:08:47;;;;;;;3.02;2.10;;;;;;;3.48;50.20;100786.00;1725984;81;25821;-71
2021/03/05 11:11:13;;;;;;;4.80;2.90;;;;;;;3.49;50.18;100786.82;1709088;81;26019;-71
2021/03/05 11:13:40;;;;;;;2.33;2.00;;;;;;;3.41;51.08;100784.80;1732924;80;25955;-71
2021/03/05 11:16:06;;;;;;;4.25;2.05;;;;;;;3.54;51.79;100784.27;1732631;81;25831;-72
2021/03/05 11:18:33;;;;;;;4.67;2.30;;;;;;;3.45;48.48;100784.93;1729460;80;25815;-72
2021/03/05 11:20:59;;;;;;;3.50;2.02;;;;;;;3.25;52.00;100780.35;1728901;81;26304;-71
2021/03/05 11:23:26;;;;;;;6.97;2.20;;;;;;;3.32;51.20;100784.14;1733992;80;26561;-74
2021/03/05 11:25:52;;;;;;;2.72;1.92;;;;;;;3.47;52.33;100776.61;1718009;81;25667;-73
2021/03/05 11:28:19;;;;;;;5.08;2.30;;;;;;;3.62;51.20;100777.27;1714290;81;25759;-73
2021/03/05 11:30:46;;;;;;;4.15;2.40;;;;;;;3.63;50.18;100776.79;1726749;81;25790;-73
2021/03/05 11:33:12;;;;;;;4.15;2.70;;;;;;;3.62;50.53;100783.72;1726584;81;25787;-72
2021/03/05 11:35:39;;;;;;;4.42;2.00;;;;;;;3.62;51.74;100789.37;1725305;81;26178;-70
2021/03/05 11:38:05;;;;;;;6.95;2.98;;;;;;;3.51;49.26;100781.08;1707612;81;26386;-69
2021/03/05 11:40:32;;;;;;;2.83;2.42;;;;;;;3.41;52.56;100784.80;1726034;81;26514;-70
2021/03/05 11:42:58;;;;;;;4.75;2.35;;;;;;;3.35;50.94;100785.21;1729311;80;25755;-72
2021/03/05 11:45:25;;;;;;;5.87;2.80;;;;;;;3.25;51.73;100791.98;1730127;81;26357;-73